createdAt,value
2018-10-17T00:01:17.086Z,30.37
2018-10-17T00:03:49.715Z,32.80
2018-10-17T00:06:22.889Z,42.83
2018-10-17T00:08:56.099Z,46.53
2018-10-17T00:11:28.575Z,43.67
2018-10-17T00:14:03.238Z,35.03
2018-10-17T00:16:36.034Z,33.20
2018-10-17T00:19:09.130Z,34.60
2018-10-17T00:21:42.481Z,33.10
2018-10-17T00:24:15.204Z,32.13
2018-10-17T00:26:48.680Z,55.60
2018-10-17T00:29:21.606Z,46.73
2018-10-17T00:31:54.789Z,45.60
2018-10-17T00:34:28.425Z,33.83
2018-10-17T00:37:02.225Z,32.97
2018-10-17T00:39:35.026Z,35.50
2018-10-17T00:42:07.818Z,32.77
2018-10-17T00:44:40.791Z,30.60
2018-10-17T00:47:13.746Z,32.03
2018-10-17T00:49:46.847Z,23.87
2018-10-17T00:52:21.047Z,30.10
2018-10-17T00:54:54.061Z,30.23
2018-10-17T00:57:27.323Z,26.63
2018-10-17T01:00:01.511Z,20.10
2018-10-17T01:02:34.482Z,23.17
2018-10-17T01:05:08.911Z,18.90
2018-10-17T01:07:41.974Z,17.10
2018-10-17T01:10:15.150Z,13.73
2018-10-17T01:12:47.510Z,13.50
2018-10-17T01:15:19.775Z,15.83
2018-10-17T01:17:52.539Z,14.07
2018-10-17T01:20:24.820Z,12.23
2018-10-17T01:22:57.633Z,13.80
2018-10-17T01:25:29.907Z,13.40
2018-10-17T01:28:02.974Z,13.17
2018-10-17T01:30:35.310Z,11.27
2018-10-17T01:33:07.959Z,11.47
2018-10-17T01:35:40.303Z,11.20
2018-10-17T01:38:14.408Z,10.17
2018-10-17T01:40:46.840Z,9.30
2018-10-17T01:43:19.298Z,11.20
2018-10-17T01:45:52.027Z,11.50
2018-10-17T01:48:25.207Z,12.67
2018-10-17T01:50:57.567Z,12.33
2018-10-17T01:53:30.451Z,12.10
2018-10-17T01:56:03.007Z,11.97
2018-10-17T01:58:35.523Z,11.60
2018-10-17T02:01:08.325Z,10.30
2018-10-17T02:03:40.860Z,11.23
2018-10-17T02:06:13.675Z,12.40
2018-10-17T02:08:46.168Z,10.27
2018-10-17T02:11:18.912Z,10.37
2018-10-17T02:13:51.482Z,10.37
2018-10-17T02:16:24.582Z,11.53
2018-10-17T02:18:57.779Z,11.00
2018-10-17T02:21:30.806Z,10.60
2018-10-17T02:24:04.758Z,14.43
2018-10-17T02:26:37.975Z,13.00
2018-10-17T02:29:10.582Z,14.00
2018-10-17T02:31:43.821Z,13.83
2018-10-17T02:34:17.018Z,16.47
2018-10-17T02:36:50.047Z,14.40
2018-10-17T02:39:23.291Z,16.70
2018-10-17T02:41:56.464Z,18.50
2018-10-17T02:44:29.300Z,21.30
2018-10-17T02:47:02.520Z,19.97
2018-10-17T02:49:35.196Z,17.73
2018-10-17T02:52:07.885Z,17.23
2018-10-17T02:54:40.759Z,15.90
2018-10-17T02:57:13.756Z,14.67
2018-10-17T02:59:46.524Z,14.90
2018-10-17T03:02:19.360Z,14.43
2018-10-17T03:04:51.722Z,13.23
2018-10-17T03:07:24.077Z,14.37
2018-10-17T03:09:56.473Z,13.87
2018-10-17T03:12:29.132Z,15.50
2018-10-17T03:15:02.324Z,15.73
2018-10-17T03:17:35.362Z,17.70
2018-10-17T03:20:09.869Z,16.00
2018-10-17T03:22:42.944Z,16.43
2018-10-17T03:25:15.975Z,18.33
2018-10-17T03:27:49.227Z,17.57
2018-10-17T03:30:21.669Z,15.80
2018-10-17T03:32:54.333Z,14.20
2018-10-17T03:35:27.395Z,14.70
2018-10-17T03:37:59.676Z,23.90
2018-10-17T03:40:32.084Z,19.70
2018-10-17T03:43:05.318Z,18.23
2018-10-17T03:45:38.159Z,21.20
2018-10-17T03:48:10.611Z,18.73
2018-10-17T03:50:42.976Z,14.53
2018-10-17T03:53:15.335Z,11.43
2018-10-17T03:55:47.784Z,8.10
2018-10-17T03:58:20.076Z,8.50
2018-10-17T04:00:52.432Z,8.47
2018-10-17T04:03:24.719Z,8.27
2018-10-17T04:05:57.051Z,6.77
2018-10-17T04:08:29.620Z,5.87
2018-10-17T04:11:02.087Z,4.40
2018-10-17T04:13:34.925Z,4.80
2018-10-17T04:16:07.253Z,4.33
2018-10-17T04:18:39.566Z,4.27
2018-10-17T04:21:11.947Z,4.43
2018-10-17T04:23:44.239Z,3.87
2018-10-17T04:26:16.617Z,4.20
2018-10-17T04:28:49.261Z,4.27
2018-10-17T04:31:21.855Z,3.67
2018-10-17T04:33:54.107Z,3.53
2018-10-17T04:36:26.792Z,3.97
2018-10-17T04:38:59.648Z,3.00
2018-10-17T04:41:32.643Z,2.80
2018-10-17T04:44:05.702Z,2.30
2018-10-17T04:46:39.023Z,1.80
2018-10-17T04:49:12.478Z,1.80
2018-10-17T04:51:45.311Z,1.80
2018-10-17T04:54:18.044Z,1.73
2018-10-17T04:56:51.107Z,1.60
2018-10-17T04:59:24.051Z,2.13
2018-10-17T05:01:57.068Z,1.60
2018-10-17T05:04:29.903Z,1.43
2018-10-17T05:07:03.157Z,1.37
2018-10-17T05:09:36.847Z,1.50
2018-10-17T05:12:09.897Z,0.90
2018-10-17T05:14:43.359Z,1.13
2018-10-17T05:17:16.438Z,1.10
2018-10-17T05:19:49.464Z,0.80
2018-10-17T05:22:22.391Z,0.80
2018-10-17T05:24:55.242Z,1.00
2018-10-17T05:27:28.120Z,1.40
2018-10-17T05:30:01.328Z,1.30
2018-10-17T05:32:34.397Z,1.20
2018-10-17T05:35:07.708Z,1.17
2018-10-17T05:37:40.552Z,1.53
2018-10-17T05:40:13.777Z,1.40
2018-10-17T05:42:46.652Z,2.87
2018-10-17T05:45:19.552Z,5.53
2018-10-17T05:47:51.913Z,4.97
2018-10-17T05:50:24.836Z,4.33
2018-10-17T05:52:57.107Z,3.63
2018-10-17T05:55:29.356Z,3.20
2018-10-17T05:58:01.716Z,2.90
2018-10-17T06:00:33.968Z,3.80
2018-10-17T06:03:06.305Z,5.27
2018-10-17T06:05:38.565Z,7.23
2018-10-17T06:08:10.851Z,6.73
2018-10-17T06:10:43.181Z,6.43
2018-10-17T06:13:15.573Z,5.60
2018-10-17T06:15:48.155Z,5.43
2018-10-17T06:18:20.857Z,5.00
2018-10-17T06:20:53.699Z,5.17
2018-10-17T06:23:26.653Z,4.97
2018-10-17T06:25:59.556Z,4.00
2018-10-17T06:28:32.103Z,5.93
2018-10-17T06:31:05.135Z,5.10
2018-10-17T06:33:38.173Z,4.50
2018-10-17T06:36:11.035Z,4.90
2018-10-17T06:38:43.978Z,3.53
2018-10-17T06:41:16.827Z,4.07
2018-10-17T06:43:50.228Z,2.80
2018-10-17T06:46:22.404Z,3.17
2018-10-17T06:48:54.717Z,3.07
2018-10-17T06:51:27.612Z,3.07
2018-10-17T06:54:00.581Z,3.10
2018-10-17T06:56:33.652Z,2.97
2018-10-17T06:59:06.936Z,2.80
2018-10-17T07:01:39.762Z,3.20
2018-10-17T07:04:12.927Z,2.93
2018-10-17T07:06:45.863Z,3.17
2018-10-17T07:09:19.248Z,3.77
2018-10-17T07:11:52.513Z,3.03
2018-10-17T07:14:25.935Z,3.40
2018-10-17T07:16:58.694Z,2.80
2018-10-17T07:19:31.608Z,2.77
2018-10-17T07:22:04.196Z,3.00
2018-10-17T07:24:37.051Z,2.43
2018-10-17T07:27:10.116Z,2.83
2018-10-17T07:29:43.395Z,2.97
2018-10-17T07:32:16.166Z,3.00
2018-10-17T07:34:48.536Z,3.70
2018-10-17T07:37:21.250Z,3.50
2018-10-17T07:39:53.959Z,3.90
2018-10-17T07:42:26.533Z,4.67
2018-10-17T07:44:59.469Z,4.63
2018-10-17T07:47:32.187Z,6.03
2018-10-17T07:50:04.951Z,5.43
2018-10-17T07:52:37.843Z,7.20
2018-10-17T07:55:12.367Z,7.20
2018-10-17T07:57:44.991Z,8.33
2018-10-17T08:00:17.944Z,7.23
2018-10-17T08:02:50.630Z,8.60
2018-10-17T08:05:23.519Z,9.53
2018-10-17T08:07:56.434Z,12.03
2018-10-17T08:10:29.507Z,18.10
2018-10-17T08:13:01.765Z,19.50
2018-10-17T08:15:34.593Z,16.20
2018-10-17T08:18:08.128Z,21.33
2018-10-17T08:20:41.114Z,20.13
2018-10-17T08:23:14.075Z,22.37
2018-10-17T08:25:46.956Z,18.40
2018-10-17T08:28:19.567Z,18.37
2018-10-17T08:30:52.356Z,18.37
2018-10-17T08:33:24.744Z,19.37
2018-10-17T08:35:57.597Z,18.30
2018-10-17T08:38:30.454Z,17.97
2018-10-17T08:41:03.393Z,18.67
2018-10-17T08:43:36.416Z,19.87
2018-10-17T08:46:09.546Z,19.27
2018-10-17T08:48:42.405Z,17.67
2018-10-17T08:51:15.376Z,18.20
2018-10-17T08:53:48.320Z,23.17
2018-10-17T08:56:21.419Z,21.43
2018-10-17T08:58:54.328Z,20.43
2018-10-17T09:01:27.332Z,19.73
2018-10-17T09:04:00.442Z,16.93
2018-10-17T09:06:33.372Z,16.10
2018-10-17T09:09:06.918Z,19.73
2018-10-17T09:11:40.445Z,18.40
2018-10-17T09:14:13.659Z,17.13
2018-10-17T09:16:47.463Z,17.43
2018-10-17T09:19:20.956Z,17.67
2018-10-17T09:21:54.222Z,13.83
2018-10-17T09:24:27.084Z,14.70
2018-10-17T09:27:01.052Z,16.83
2018-10-17T09:29:33.837Z,15.43
2018-10-17T09:32:06.832Z,16.20
2018-10-17T09:34:39.761Z,16.07
2018-10-17T09:37:12.677Z,16.10
2018-10-17T09:39:45.596Z,18.90
2018-10-17T09:42:18.545Z,17.90
2018-10-17T09:44:51.268Z,18.17
2018-10-17T09:47:24.066Z,18.70
2018-10-17T09:49:56.653Z,20.23
2018-10-17T09:52:29.553Z,19.67
2018-10-17T09:55:02.284Z,20.20
2018-10-17T09:57:35.032Z,18.87
2018-10-17T10:00:13.204Z,21.23
2018-10-17T10:02:46.163Z,26.80
2018-10-17T10:05:19.173Z,22.00
2018-10-17T10:07:52.272Z,20.83
2018-10-17T10:10:24.565Z,22.53
2018-10-17T10:12:57.497Z,22.23
2018-10-17T10:15:30.312Z,19.63
2018-10-17T10:18:03.295Z,20.43
2018-10-17T10:20:36.273Z,21.30
2018-10-17T10:23:09.087Z,19.57
2018-10-17T10:25:41.919Z,20.77
2018-10-17T10:28:14.712Z,20.00
2018-10-17T10:30:47.636Z,19.37
2018-10-17T10:33:20.725Z,18.67
2018-10-17T10:35:53.789Z,17.47
2018-10-17T10:38:26.786Z,17.87
2018-10-17T10:40:59.515Z,19.43
2018-10-17T10:43:32.263Z,18.77
2018-10-17T10:46:04.899Z,16.73
2018-10-17T10:48:37.580Z,17.83
2018-10-17T10:51:10.559Z,19.93
2018-10-17T10:53:42.933Z,22.10
2018-10-17T10:56:15.546Z,26.47
2018-10-17T10:58:47.997Z,22.17
2018-10-17T11:01:20.273Z,16.90
2018-10-17T11:03:52.861Z,19.57
2018-10-17T11:06:25.094Z,18.60
2018-10-17T11:08:57.386Z,22.33
2018-10-17T11:11:29.623Z,22.23
2018-10-17T11:14:02.013Z,22.27
2018-10-17T11:16:34.314Z,26.97
2018-10-17T11:19:06.683Z,28.53
2018-10-17T11:21:39.264Z,27.03
2018-10-17T11:24:11.563Z,31.73
2018-10-17T11:26:43.772Z,29.30
2018-10-17T11:29:16.508Z,34.33
2018-10-17T11:31:49.152Z,29.93
2018-10-17T11:34:21.521Z,27.80
2018-10-17T11:36:54.063Z,25.50
2018-10-17T11:39:26.338Z,24.03
2018-10-17T11:41:58.580Z,27.83
2018-10-17T11:44:30.895Z,25.23
2018-10-17T11:47:03.227Z,25.97
2018-10-17T11:49:35.624Z,29.53
2018-10-17T11:52:07.931Z,24.00
2018-10-17T11:54:40.256Z,25.30
2018-10-17T11:57:12.825Z,26.50
2018-10-17T11:59:45.169Z,31.67
2018-10-17T12:02:17.924Z,25.17
2018-10-17T12:04:50.846Z,23.33
2018-10-17T12:07:23.556Z,24.27
2018-10-17T12:09:56.440Z,28.70
2018-10-17T12:12:29.207Z,22.47
2018-10-17T12:15:02.168Z,24.80
2018-10-17T12:17:35.460Z,23.97
2018-10-17T12:20:09.357Z,21.53
2018-10-17T12:22:43.380Z,22.00
2018-10-17T12:25:16.555Z,20.73
2018-10-17T12:27:49.626Z,21.87
2018-10-17T12:30:21.993Z,22.50
2018-10-17T12:32:54.315Z,22.40
2018-10-17T12:35:26.735Z,19.83
2018-10-17T12:37:59.300Z,21.17
2018-10-17T12:40:32.395Z,20.43
2018-10-17T12:43:05.248Z,19.97
2018-10-17T12:45:38.271Z,18.90
2018-10-17T12:48:11.154Z,18.03
2018-10-17T12:50:44.103Z,19.40
2018-10-17T12:53:16.930Z,19.57
2018-10-17T12:55:49.821Z,20.37
2018-10-17T12:58:22.281Z,18.07
2018-10-17T13:00:54.837Z,17.30
2018-10-17T13:03:27.440Z,15.83
2018-10-17T13:06:00.376Z,15.90
2018-10-17T13:08:33.342Z,14.97
2018-10-17T13:11:06.422Z,16.73
2018-10-17T13:13:39.438Z,16.33
2018-10-17T13:16:12.496Z,17.63
2018-10-17T13:18:45.361Z,16.43
2018-10-17T13:21:18.091Z,15.53
2018-10-17T13:23:51.080Z,17.03
2018-10-17T13:26:24.297Z,18.03
2018-10-17T13:28:57.166Z,18.07
2018-10-17T13:31:30.212Z,17.70
2018-10-17T13:34:02.894Z,16.43
2018-10-17T13:36:35.798Z,16.03
2018-10-17T13:39:13.496Z,16.90
2018-10-17T13:41:46.345Z,15.60
2018-10-17T13:44:18.756Z,14.37
2018-10-17T13:46:51.709Z,13.63
2018-10-17T13:49:24.838Z,14.03
2018-10-17T13:51:58.931Z,15.53
2018-10-17T13:54:32.075Z,17.20
2018-10-17T13:57:04.481Z,14.83
2018-10-17T13:59:37.010Z,16.20
2018-10-17T14:02:09.883Z,15.97
2018-10-17T14:04:42.221Z,15.73
2018-10-17T14:07:15.249Z,15.27
2018-10-17T14:09:47.572Z,12.63
2018-10-17T14:12:19.971Z,12.60
2018-10-17T14:14:53.381Z,12.37
2018-10-17T14:17:25.699Z,14.03
2018-10-17T14:19:58.204Z,21.70
2018-10-17T14:22:30.704Z,16.17
2018-10-17T14:25:03.840Z,13.60
2018-10-17T14:27:36.390Z,13.63
2018-10-17T14:30:09.601Z,13.27
2018-10-17T14:32:42.015Z,12.00
2018-10-17T14:35:14.579Z,13.20
2018-10-17T14:37:47.157Z,17.50
2018-10-17T14:40:19.758Z,16.77
2018-10-17T14:42:52.194Z,16.53
2018-10-17T14:45:24.488Z,16.47
2018-10-17T14:47:56.868Z,15.40
2018-10-17T14:50:29.718Z,13.83
2018-10-17T14:53:02.777Z,13.83
2018-10-17T14:55:35.129Z,14.10
2018-10-17T14:58:07.488Z,11.50
2018-10-17T15:00:39.859Z,12.20
2018-10-17T15:03:12.357Z,11.53
2018-10-17T15:05:44.679Z,13.03
2018-10-17T15:08:17.102Z,13.70
2018-10-17T15:10:49.518Z,12.37
2018-10-17T15:13:21.941Z,13.10
2018-10-17T15:15:55.449Z,11.03
2018-10-17T15:18:28.701Z,12.03
2018-10-17T15:21:01.864Z,11.77
2018-10-17T15:23:34.492Z,12.57
2018-10-17T15:26:07.711Z,11.97
2018-10-17T15:28:40.650Z,14.83
2018-10-17T15:31:13.470Z,17.27
2018-10-17T15:33:46.672Z,17.47
2018-10-17T15:36:20.590Z,14.97
2018-10-17T15:38:53.851Z,16.67
2018-10-17T15:41:27.473Z,14.67
2018-10-17T15:43:59.850Z,15.40
2018-10-17T15:49:23.687Z,22.70
2018-10-17T15:51:56.479Z,14.90
2018-10-17T15:54:29.906Z,20.60
2018-10-17T15:57:02.996Z,23.27
2018-10-17T15:59:36.540Z,23.47
2018-10-17T16:02:10.243Z,25.33
2018-10-17T16:04:43.217Z,30.73
2018-10-17T16:07:16.393Z,23.80
2018-10-17T16:09:49.913Z,27.03
2018-10-17T16:12:22.580Z,19.90
2018-10-17T16:14:55.888Z,19.83
2018-10-17T16:17:28.520Z,21.33
2018-10-17T16:20:01.787Z,17.87
2018-10-17T16:22:35.033Z,12.03
2018-10-17T16:25:08.596Z,8.60
2018-10-17T16:27:42.808Z,8.73
2018-10-17T16:30:15.769Z,9.20
2018-10-17T16:32:49.065Z,9.57
2018-10-17T16:35:23.740Z,15.60
2018-10-17T16:38:07.732Z,17.00
2018-10-17T16:40:41.199Z,14.03
2018-10-17T16:43:14.183Z,16.27
2018-10-17T16:45:47.740Z,13.50
2018-10-17T16:48:20.828Z,9.47
2018-10-17T16:50:54.152Z,7.00
2018-10-17T16:53:27.896Z,7.20
2018-10-17T16:56:01.239Z,7.10
2018-10-17T16:58:34.214Z,8.07
2018-10-17T17:01:07.333Z,7.63
2018-10-17T17:03:41.145Z,7.27
2018-10-17T17:06:14.242Z,9.73
2018-10-17T17:08:47.712Z,11.40
2018-10-17T17:11:20.644Z,9.20
2018-10-17T17:13:52.920Z,8.10
2018-10-17T17:16:27.208Z,11.10
2018-10-17T17:19:00.351Z,15.80
2018-10-17T17:21:32.856Z,23.30
2018-10-17T17:24:05.208Z,19.17
2018-10-17T17:26:39.032Z,16.83
2018-10-17T17:29:12.861Z,16.07
2018-10-17T17:31:45.957Z,13.87
2018-10-17T17:34:18.630Z,14.47
2018-10-17T17:36:51.595Z,14.17
2018-10-17T17:39:23.923Z,13.70
2018-10-17T17:41:56.973Z,14.87
2018-10-17T17:44:30.364Z,16.20
2018-10-17T17:47:02.879Z,15.50
2018-10-17T17:49:35.815Z,10.80
2018-10-17T17:52:08.946Z,10.20
2018-10-17T17:54:42.155Z,17.50
2018-10-17T17:57:14.600Z,16.23
2018-10-17T17:59:47.998Z,16.20
2018-10-17T18:02:21.699Z,14.17
2018-10-17T18:04:54.267Z,14.27
2018-10-17T18:07:27.789Z,12.43
2018-10-17T18:10:01.245Z,12.77
2018-10-17T18:12:35.700Z,13.10
2018-10-17T18:15:08.937Z,10.90
2018-10-17T18:17:42.457Z,12.00
2018-10-17T18:20:16.559Z,12.43
2018-10-17T18:22:49.127Z,13.13
2018-10-17T18:25:22.492Z,11.67
2018-10-17T18:27:56.714Z,12.03
2018-10-17T18:30:30.382Z,11.70
2018-10-17T18:33:03.980Z,12.47
2018-10-17T18:35:37.251Z,12.37
2018-10-17T18:38:09.868Z,12.20
2018-10-17T18:40:42.440Z,11.87
2018-10-17T18:43:14.979Z,9.93
2018-10-17T18:45:47.408Z,11.00
2018-10-17T18:48:20.030Z,12.77
2018-10-17T18:50:52.954Z,12.83
2018-10-17T18:53:25.613Z,10.90
2018-10-17T18:55:58.912Z,11.30
2018-10-17T18:58:32.496Z,12.07
2018-10-17T19:01:04.975Z,10.37
2018-10-17T19:03:38.084Z,11.17
2018-10-17T19:06:11.166Z,10.67
2018-10-17T19:08:43.572Z,11.43
2018-10-17T19:11:16.096Z,11.80
2018-10-17T19:13:48.609Z,11.47
2018-10-17T19:16:21.056Z,9.93
2018-10-17T19:18:54.415Z,10.40
2018-10-17T19:21:26.869Z,11.87
2018-10-17T19:24:00.759Z,10.93
2018-10-17T19:26:34.019Z,11.40
2018-10-17T19:29:07.317Z,10.87
2018-10-17T19:31:40.424Z,11.07
2018-10-17T19:34:13.336Z,10.57
2018-10-17T19:36:46.260Z,10.90
2018-10-17T19:39:19.516Z,11.53
2018-10-17T19:41:53.509Z,10.37
2018-10-17T19:44:27.483Z,10.53
2018-10-17T19:46:59.976Z,11.27
2018-10-17T19:49:32.860Z,8.80
2018-10-17T19:52:06.124Z,8.77
2018-10-17T19:54:38.624Z,7.80
2018-10-17T19:57:11.443Z,6.23
2018-10-17T19:59:44.247Z,8.03
2018-10-17T20:02:17.264Z,3.80
2018-10-17T20:04:49.852Z,4.33
2018-10-17T20:07:23.299Z,3.77
2018-10-17T20:09:56.647Z,5.77
2018-10-17T20:12:31.055Z,4.37
2018-10-17T20:15:04.078Z,7.90
2018-10-17T20:17:37.154Z,9.27
2018-10-17T20:20:10.405Z,8.20
2018-10-17T20:22:43.259Z,10.13
2018-10-17T20:25:17.385Z,8.30
2018-10-17T20:27:50.320Z,13.80
2018-10-17T20:30:26.020Z,10.10
2018-10-17T20:32:59.797Z,6.03
2018-10-17T20:35:32.248Z,7.10
2018-10-17T20:38:04.567Z,6.00
2018-10-17T20:40:39.670Z,26.23
2018-10-17T20:43:12.552Z,8.30
2018-10-17T20:45:46.858Z,5.90
2018-10-17T20:48:19.472Z,4.70
2018-10-17T20:50:53.196Z,4.13
2018-10-17T20:53:31.969Z,4.57
2018-10-17T20:56:05.064Z,4.83
2018-10-17T20:58:38.049Z,3.60
2018-10-17T21:01:12.163Z,3.40
2018-10-17T21:03:49.580Z,2.50
2018-10-17T21:06:22.905Z,3.20
2018-10-17T21:08:56.330Z,2.50
2018-10-17T21:11:29.253Z,2.50
2018-10-17T21:14:03.031Z,2.87
2018-10-17T21:16:36.452Z,3.33
2018-10-17T21:19:09.744Z,3.33
2018-10-17T21:21:46.658Z,3.40
2018-10-17T21:24:19.526Z,3.17
2018-10-17T21:26:52.708Z,3.20
2018-10-17T21:29:25.044Z,3.47
2018-10-17T21:31:57.473Z,5.43
2018-10-17T21:34:31.127Z,8.00
2018-10-17T21:37:03.584Z,6.37
2018-10-17T21:39:36.409Z,5.90
2018-10-17T21:42:08.791Z,5.70
2018-10-17T21:44:41.893Z,5.27
2018-10-17T21:47:14.443Z,5.53
2018-10-17T21:49:46.977Z,5.17
2018-10-17T21:52:19.475Z,5.73
2018-10-17T21:54:52.349Z,5.47
2018-10-17T21:57:25.004Z,6.17
2018-10-17T21:59:57.282Z,6.10
2018-10-17T22:02:29.872Z,7.13
2018-10-17T22:05:02.166Z,7.20
2018-10-17T22:07:34.529Z,7.60
2018-10-17T22:10:08.329Z,7.90
2018-10-17T22:12:40.806Z,7.13
2018-10-17T22:15:13.492Z,7.17
2018-10-17T22:17:45.873Z,7.07
2018-10-17T22:20:18.326Z,6.77
2018-10-17T22:22:51.096Z,6.50
2018-10-17T22:25:23.795Z,6.03
2018-10-17T22:27:56.784Z,4.83
2018-10-17T22:30:29.157Z,6.70
2018-10-17T22:33:01.700Z,4.27
2018-10-17T22:35:34.332Z,4.77
2018-10-17T22:38:07.247Z,5.93
2018-10-17T22:40:40.203Z,4.00
2018-10-17T22:43:12.536Z,4.00
2018-10-17T22:45:44.895Z,4.30
2018-10-17T22:48:18.304Z,7.13
2018-10-17T22:50:52.237Z,3.53
2018-10-17T22:53:24.599Z,3.37
2018-10-17T22:55:57.067Z,4.17
2018-10-17T22:58:29.623Z,4.27
2018-10-17T23:01:02.851Z,4.40
2018-10-17T23:03:35.306Z,4.53
2018-10-17T23:06:08.605Z,6.10
2018-10-17T23:08:41.456Z,5.20
2018-10-17T23:11:15.475Z,6.10
2018-10-17T23:13:48.504Z,9.27
2018-10-17T23:16:21.323Z,6.17
2018-10-17T23:18:53.711Z,5.57
2018-10-17T23:21:25.907Z,5.70
2018-10-17T23:23:58.755Z,5.73
2018-10-17T23:26:31.365Z,5.00
2018-10-17T23:29:03.657Z,5.87
2018-10-17T23:31:35.953Z,6.20
2018-10-17T23:34:08.351Z,5.70
2018-10-17T23:36:40.770Z,5.90
2018-10-17T23:39:13.627Z,7.00
2018-10-17T23:41:45.896Z,6.00
2018-10-17T23:44:19.154Z,5.83
2018-10-17T23:46:52.104Z,5.33
2018-10-17T23:49:24.441Z,5.30
2018-10-17T23:51:56.666Z,5.83
2018-10-17T23:54:29.006Z,7.20
2018-10-17T23:57:01.480Z,7.37
2018-10-17T23:59:33.793Z,7.80
